Aviation Digital Data Service (ADDS)

Output produced by METARs form (0659 UTC 20 March 2019)
found at http://www.aviationweather.gov/metar/data/
 
METAR text: EKKA 200650Z AUTO 23011KT 4400NDV BR OVC003/// 07/07 Q1023 TEMPO 1800 BR BKN004
Conditions at: EKKA (KARUP (DAN-AFB) , DK) observed 0650 UTC 20 March 2019
Temperature: 7.0°C (45°F)
Dewpoint: 7.0°C (45°F) [RH = 100%]
Pressure (altimeter): 30.21 inches Hg (1023.0 mb)
Winds: from the SW (230 degrees) at 13 MPH (11 knots; 5.7 m/s)
Visibility: missing
Ceiling: 300 feet AGL
Clouds: overcast cloud deck at 300 feet AGL
Weather: BR  (mist)

METAR text: EKKA 200620Z AUTO 22011KT 2900NDV BR OVC003/// 07/06 Q1022 TEMPO 1800 BR BKN004
Conditions at: EKKA (KARUP (DAN-AFB) , DK) observed 0620 UTC 20 March 2019
Temperature: 7.0°C (45°F)
Dewpoint: 6.0°C (43°F) [RH = 93%]
Pressure (altimeter): 30.18 inches Hg (1022.0 mb)
Winds: from the SW (220 degrees) at 13 MPH (11 knots; 5.7 m/s)
Visibility: missing
Ceiling: 300 feet AGL
Clouds: overcast cloud deck at 300 feet AGL
Weather: BR  (mist)

METAR text: EKKA 200550Z AUTO 22011KT 2400NDV -SHRA BR OVC003/// 07/06 Q1022 TEMPO 1800 BR BKN003
Conditions at: EKKA (KARUP (DAN-AFB) , DK) observed 0550 UTC 20 March 2019
Temperature: 7.0°C (45°F)
Dewpoint: 6.0°C (43°F) [RH = 93%]
Pressure (altimeter): 30.18 inches Hg (1022.0 mb)
Winds: from the SW (220 degrees) at 13 MPH (11 knots; 5.7 m/s)
Visibility: missing
Ceiling: 300 feet AGL
Clouds: overcast cloud deck at 300 feet AGL
Weather: -SHRA BR  (light rain showers, mist)

METAR text: EKKA 200533Z AUTO 22011KT 2600NDV -SHRA BR OVC003/// 07/06 Q1022 TEMPO 1800 BR BKN003
Conditions at: EKKA (KARUP (DAN-AFB) , DK) observed 0533 UTC 20 March 2019
Temperature: 7.0°C (45°F)
Dewpoint: 6.0°C (43°F) [RH = 93%]
Pressure (altimeter): 30.18 inches Hg (1022.0 mb)
Winds: from the SW (220 degrees) at 13 MPH (11 knots; 5.7 m/s)
Visibility: missing
Ceiling: 300 feet AGL
Clouds: overcast cloud deck at 300 feet AGL
Weather: -SHRA BR  (light rain showers, mist)

METAR text: EKKA 200520Z AUTO 22012KT 2200NDV -SHRA BR OVC004/// 07/06 Q1022 NOSIG
Conditions at: EKKA (KARUP (DAN-AFB) , DK) observed 0520 UTC 20 March 2019
Temperature: 7.0°C (45°F)
Dewpoint: 6.0°C (43°F) [RH = 93%]
Pressure (altimeter): 30.18 inches Hg (1022.0 mb)
Winds: from the SW (220 degrees) at 14 MPH (12 knots; 6.2 m/s)
Visibility: missing
Ceiling: 400 feet AGL
Clouds: overcast cloud deck at 400 feet AGL
Weather: -SHRA BR  (light rain showers, mist)

METAR text: EKKA 200508Z AUTO 23012KT 2900NDV -SHRA BR OVC004/// 07/06 Q1022 NOSIG
Conditions at: EKKA (KARUP (DAN-AFB) , DK) observed 0508 UTC 20 March 2019
Temperature: 7.0°C (45°F)
Dewpoint: 6.0°C (43°F) [RH = 93%]
Pressure (altimeter): 30.18 inches Hg (1022.0 mb)
Winds: from the SW (230 degrees) at 14 MPH (12 knots; 6.2 m/s)
Visibility: missing
Ceiling: 400 feet AGL
Clouds: overcast cloud deck at 400 feet AGL
Weather: -SHRA BR  (light rain showers, mist)

METAR text: EKKA 200450Z AUTO 22012KT 3000NDV -DZ BR OVC004/// 07/06 Q1022 NOSIG
Conditions at: EKKA (KARUP (DAN-AFB) , DK) observed 0450 UTC 20 March 2019
Temperature: 7.0°C (45°F)
Dewpoint: 6.0°C (43°F) [RH = 93%]
Pressure (altimeter): 30.18 inches Hg (1022.0 mb)
Winds: from the SW (220 degrees) at 14 MPH (12 knots; 6.2 m/s)
Visibility: missing
Ceiling: 400 feet AGL
Clouds: overcast cloud deck at 400 feet AGL
Weather: -DZ BR  (light drizzle, mist)

METAR text: EKKA 200432Z AUTO 22011KT 2900NDV -DZ BR OVC004/// 07/06 Q1022 NOSIG
Conditions at: EKKA (KARUP (DAN-AFB) , DK) observed 0432 UTC 20 March 2019
Temperature: 7.0°C (45°F)
Dewpoint: 6.0°C (43°F) [RH = 93%]
Pressure (altimeter): 30.18 inches Hg (1022.0 mb)
Winds: from the SW (220 degrees) at 13 MPH (11 knots; 5.7 m/s)
Visibility: missing
Ceiling: 400 feet AGL
Clouds: overcast cloud deck at 400 feet AGL
Weather: -DZ BR  (light drizzle, mist)

METAR text: EKKA 200420Z AUTO 22012KT 3000NDV BR OVC004/// 07/06 Q1022 NOSIG
Conditions at: EKKA (KARUP (DAN-AFB) , DK) observed 0420 UTC 20 March 2019
Temperature: 7.0°C (45°F)
Dewpoint: 6.0°C (43°F) [RH = 93%]
Pressure (altimeter): 30.18 inches Hg (1022.0 mb)
Winds: from the SW (220 degrees) at 14 MPH (12 knots; 6.2 m/s)
Visibility: missing
Ceiling: 400 feet AGL
Clouds: overcast cloud deck at 400 feet AGL
Weather: BR  (mist)

METAR text: EKKA 200414Z AUTO 22012KT 3200NDV BR OVC004/// 07/06 Q1022 NOSIG
Conditions at: EKKA (KARUP (DAN-AFB) , DK) observed 0414 UTC 20 March 2019
Temperature: 7.0°C (45°F)
Dewpoint: 6.0°C (43°F) [RH = 93%]
Pressure (altimeter): 30.18 inches Hg (1022.0 mb)
Winds: from the SW (220 degrees) at 14 MPH (12 knots; 6.2 m/s)
Visibility: missing
Ceiling: 400 feet AGL
Clouds: overcast cloud deck at 400 feet AGL
Weather: BR  (mist)

METAR text: EKKA 200356Z AUTO 22012KT 2900NDV BR OVC005/// 06/06 Q1023 NOSIG
Conditions at: EKKA (KARUP (DAN-AFB) , DK) observed 0356 UTC 20 March 2019
Temperature: 6.0°C (43°F)
Dewpoint: 6.0°C (43°F) [RH = 100%]
Pressure (altimeter): 30.21 inches Hg (1023.0 mb)
Winds: from the SW (220 degrees) at 14 MPH (12 knots; 6.2 m/s)
Visibility: missing
Ceiling: 500 feet AGL
Clouds: overcast cloud deck at 500 feet AGL
Weather: BR  (mist)

METAR text: EKKA 200350Z AUTO 22012KT 3500NDV BR OVC005/// 06/06 Q1023 NOSIG
Conditions at: EKKA (KARUP (DAN-AFB) , DK) observed 0350 UTC 20 March 2019
Temperature: 6.0°C (43°F)
Dewpoint: 6.0°C (43°F) [RH = 100%]
Pressure (altimeter): 30.21 inches Hg (1023.0 mb)
Winds: from the SW (220 degrees) at 14 MPH (12 knots; 6.2 m/s)
Visibility: missing
Ceiling: 500 feet AGL
Clouds: overcast cloud deck at 500 feet AGL
Weather: BR  (mist)

METAR text: EKKA 200342Z AUTO 22012KT 4800NDV BR OVC005/// 06/05 Q1023 NOSIG
Conditions at: EKKA (KARUP (DAN-AFB) , DK) observed 0342 UTC 20 March 2019
Temperature: 6.0°C (43°F)
Dewpoint: 5.0°C (41°F) [RH = 93%]
Pressure (altimeter): 30.21 inches Hg (1023.0 mb)
Winds: from the SW (220 degrees) at 14 MPH (12 knots; 6.2 m/s)
Visibility: missing
Ceiling: 500 feet AGL
Clouds: overcast cloud deck at 500 feet AGL
Weather: BR  (mist)

METAR text: EKKA 200341Z AUTO 22012KT 4800NDV BR OVC005/// 06/05 Q1023 NOSIG
Conditions at: EKKA (KARUP (DAN-AFB) , DK) observed 0341 UTC 20 March 2019
Temperature: 6.0°C (43°F)
Dewpoint: 5.0°C (41°F) [RH = 93%]
Pressure (altimeter): 30.21 inches Hg (1023.0 mb)
Winds: from the SW (220 degrees) at 14 MPH (12 knots; 6.2 m/s)
Visibility: missing
Ceiling: 500 feet AGL
Clouds: overcast cloud deck at 500 feet AGL
Weather: BR  (mist)

METAR text: EKKA 200320Z AUTO 22013KT 6000NDV -SHRA OVC005/// 06/05 Q1023 NOSIG
Conditions at: EKKA (KARUP (DAN-AFB) , DK) observed 0320 UTC 20 March 2019
Temperature: 6.0°C (43°F)
Dewpoint: 5.0°C (41°F) [RH = 93%]
Pressure (altimeter): 30.21 inches Hg (1023.0 mb)
Winds: from the SW (220 degrees) at 15 MPH (13 knots; 6.7 m/s)
Visibility: missing
Ceiling: 500 feet AGL
Clouds: overcast cloud deck at 500 feet AGL
Weather: -SHRA  (light rain showers)

METAR text: EKKA 200257Z AUTO 22010KT 7000NDV -SHRA OVC005/// 06/05 Q1023 NOSIG
Conditions at: EKKA (KARUP (DAN-AFB) , DK) observed 0257 UTC 20 March 2019
Temperature: 6.0°C (43°F)
Dewpoint: 5.0°C (41°F) [RH = 93%]
Pressure (altimeter): 30.21 inches Hg (1023.0 mb)
Winds: from the SW (220 degrees) at 12 MPH (10 knots; 5.1 m/s)
Visibility: missing
Ceiling: 500 feet AGL
Clouds: overcast cloud deck at 500 feet AGL
Weather: -SHRA  (light rain showers)

METAR text: EKKA 200250Z AUTO 22009KT 9999NDV -DZ OVC005/// 06/05 Q1023 NOSIG
Conditions at: EKKA (KARUP (DAN-AFB) , DK) observed 0250 UTC 20 March 2019
Temperature: 6.0°C (43°F)
Dewpoint: 5.0°C (41°F) [RH = 93%]
Pressure (altimeter): 30.21 inches Hg (1023.0 mb)
Winds: from the SW (220 degrees) at 10 MPH (9 knots; 4.6 m/s)
Visibility: missing
Ceiling: 500 feet AGL
Clouds: overcast cloud deck at 500 feet AGL
Weather: -DZ  (light drizzle)

METAR text: EKKA 200220Z AUTO 22010KT 9999NDV OVC007/// 06/04 Q1024 NOSIG
Conditions at: EKKA (KARUP (DAN-AFB) , DK) observed 0220 UTC 20 March 2019
Temperature: 6.0°C (43°F)
Dewpoint: 4.0°C (39°F) [RH = 87%]
Pressure (altimeter): 30.24 inches Hg (1024.0 mb)
Winds: from the SW (220 degrees) at 12 MPH (10 knots; 5.1 m/s)
Visibility: missing
Ceiling: 700 feet AGL
Clouds: overcast cloud deck at 700 feet AGL
Weather: no significant weather observed at this time

METAR text: EKKA 200150Z AUTO 22011KT 9999NDV OVC009/// 06/04 Q1024 NOSIG
Conditions at: EKKA (KARUP (DAN-AFB) , DK) observed 0150 UTC 20 March 2019
Temperature: 6.0°C (43°F)
Dewpoint: 4.0°C (39°F) [RH = 87%]
Pressure (altimeter): 30.24 inches Hg (1024.0 mb)
Winds: from the SW (220 degrees) at 13 MPH (11 knots; 5.7 m/s)
Visibility: missing
Ceiling: 900 feet AGL
Clouds: overcast cloud deck at 900 feet AGL
Weather: no significant weather observed at this time

METAR text: EKKA 200144Z AUTO 22010KT 9999NDV BKN009/// 06/04 Q1024 NOSIG
Conditions at: EKKA (KARUP (DAN-AFB) , DK) observed 0144 UTC 20 March 2019
Temperature: 6.0°C (43°F)
Dewpoint: 4.0°C (39°F) [RH = 87%]
Pressure (altimeter): 30.24 inches Hg (1024.0 mb)
Winds: from the SW (220 degrees) at 12 MPH (10 knots; 5.1 m/s)
Visibility: missing
Ceiling: 900 feet AGL
Clouds: broken clouds at 900 feet AGL
Weather: no significant weather observed at this time

METAR text: EKKA 200143Z AUTO 22010KT 9999NDV BKN009/// 06/04 Q1024 NOSIG
Conditions at: EKKA (KARUP (DAN-AFB) , DK) observed 0143 UTC 20 March 2019
Temperature: 6.0°C (43°F)
Dewpoint: 4.0°C (39°F) [RH = 87%]
Pressure (altimeter): 30.24 inches Hg (1024.0 mb)
Winds: from the SW (220 degrees) at 12 MPH (10 knots; 5.1 m/s)
Visibility: missing
Ceiling: 900 feet AGL
Clouds: broken clouds at 900 feet AGL
Weather: no significant weather observed at this time

METAR text: EKKA 200128Z AUTO 21010KT 9999NDV BKN011/// BKN072/// 05/03 Q1024 NOSIG
Conditions at: EKKA (KARUP (DAN-AFB) , DK) observed 0128 UTC 20 March 2019
Temperature: 5.0°C (41°F)
Dewpoint: 3.0°C (37°F) [RH = 87%]
Pressure (altimeter): 30.24 inches Hg (1024.0 mb)
Winds: from the SSW (210 degrees) at 12 MPH (10 knots; 5.1 m/s)
Visibility: missing
Ceiling: 1100 feet AGL
Clouds: broken clouds at 1100 feet AGL
broken clouds at 7200 feet AGL
Weather: no significant weather observed at this time

METAR text: EKKA 200120Z AUTO 21009KT 180V240 9999NDV SCT012/// BKN074/// 05/03 Q1024 NOSIG
Conditions at: EKKA (KARUP (DAN-AFB) , DK) observed 0120 UTC 20 March 2019
Temperature: 5.0°C (41°F)
Dewpoint: 3.0°C (37°F) [RH = 87%]
Pressure (altimeter): 30.24 inches Hg (1024.0 mb)
Winds: from the SSW (210 degrees) at 10 MPH (9 knots; 4.6 m/s)
Visibility: missing
Ceiling: 7400 feet AGL
Clouds: scattered clouds at 1200 feet AGL
broken clouds at 7400 feet AGL
Weather: no significant weather observed at this time

METAR text: EKKA 200050Z AUTO 21008KT 9999NDV OVC077/// 05/03 Q1024 NOSIG
Conditions at: EKKA (KARUP (DAN-AFB) , DK) observed 0050 UTC 20 March 2019
Temperature: 5.0°C (41°F)
Dewpoint: 3.0°C (37°F) [RH = 87%]
Pressure (altimeter): 30.24 inches Hg (1024.0 mb)
Winds: from the SSW (210 degrees) at 9 MPH (8 knots; 4.1 m/s)
Visibility: missing
Ceiling: 7700 feet AGL
Clouds: overcast cloud deck at 7700 feet AGL
Weather: no significant weather observed at this time

METAR text: EKKA 200020Z AUTO 21009KT 9999NDV OVC091/// 05/03 Q1025 NOSIG
Conditions at: EKKA (KARUP (DAN-AFB) , DK) observed 0020 UTC 20 March 2019
Temperature: 5.0°C (41°F)
Dewpoint: 3.0°C (37°F) [RH = 87%]
Pressure (altimeter): 30.27 inches Hg (1025.0 mb)
Winds: from the SSW (210 degrees) at 10 MPH (9 knots; 4.6 m/s)
Visibility: missing
Ceiling: 9100 feet AGL
Clouds: overcast cloud deck at 9100 feet AGL
Weather: no significant weather observed at this time

METAR text: EKKA 192350Z AUTO 21008KT 9999NDV BKN100/// 04/02 Q1025 NOSIG
Conditions at: EKKA (KARUP (DAN-AFB) , DK) observed 2350 UTC 19 March 2019
Temperature: 4.0°C (39°F)
Dewpoint: 2.0°C (36°F) [RH = 87%]
Pressure (altimeter): 30.27 inches Hg (1025.0 mb)
Winds: from the SSW (210 degrees) at 9 MPH (8 knots; 4.1 m/s)
Visibility: missing
Ceiling: 10000 feet AGL
Clouds: broken clouds at 10000 feet AGL
Weather: no significant weather observed at this time

METAR text: EKKA 192320Z AUTO 21010KT 170V230 9999NDV SCT012/// BKN110/// BKN130/// 04/02 Q1025 NOSIG
Conditions at: EKKA (KARUP (DAN-AFB) , DK) observed 2320 UTC 19 March 2019
Temperature: 4.0°C (39°F)
Dewpoint: 2.0°C (36°F) [RH = 87%]
Pressure (altimeter): 30.27 inches Hg (1025.0 mb)
Winds: from the SSW (210 degrees) at 12 MPH (10 knots; 5.1 m/s)
Visibility: missing
Ceiling: 11000 feet AGL
Clouds: scattered clouds at 1200 feet AGL
broken clouds at 11000 feet AGL
broken clouds at 13000 feet AGL
Weather: no significant weather observed at this time

METAR text: EKKA 192250Z AUTO 21009KT 9999NDV BKN120/// 03/02 Q1025 NOSIG
Conditions at: EKKA (KARUP (DAN-AFB) , DK) observed 2250 UTC 19 March 2019
Temperature: 3.0°C (37°F)
Dewpoint: 2.0°C (36°F) [RH = 93%]
Pressure (altimeter): 30.27 inches Hg (1025.0 mb)
Winds: from the SSW (210 degrees) at 10 MPH (9 knots; 4.6 m/s)
Visibility: missing
Ceiling: 12000 feet AGL
Clouds: broken clouds at 12000 feet AGL
Weather: no significant weather observed at this time

METAR text: EKKA 192220Z AUTO 20007KT 9999NDV BKN130/// BKN160/// 03/01 Q1025 NOSIG
Conditions at: EKKA (KARUP (DAN-AFB) , DK) observed 2220 UTC 19 March 2019
Temperature: 3.0°C (37°F)
Dewpoint: 1.0°C (34°F) [RH = 87%]
Pressure (altimeter): 30.27 inches Hg (1025.0 mb)
Winds: from the SSW (200 degrees) at 8 MPH (7 knots; 3.6 m/s)
Visibility: missing
Ceiling: 13000 feet AGL
Clouds: broken clouds at 13000 feet AGL
broken clouds at 16000 feet AGL
Weather: no significant weather observed at this time

METAR text: EKKA 192150Z AUTO 20007KT 9999NDV FEW110/// 02/00 Q1026 NOSIG
Conditions at: EKKA (KARUP (DAN-AFB) , DK) observed 2150 UTC 19 March 2019
Temperature: 2.0°C (36°F)
Dewpoint: 0.0°C (32°F) [RH = 87%]
Pressure (altimeter): 30.30 inches Hg (1026.0 mb)
Winds: from the SSW (200 degrees) at 8 MPH (7 knots; 3.6 m/s)
Visibility: missing
Ceiling: at least 12,000 feet AGL
Clouds: few clouds at 11000 feet AGL
Weather: no significant weather observed at this time

METAR text: EKKA 192120Z AUTO 22007KT 9999NDV NCD 02/01 Q1026 NOSIG
Conditions at: EKKA (KARUP (DAN-AFB) , DK) observed 2120 UTC 19 March 2019
Temperature: 2.0°C (36°F)
Dewpoint: 1.0°C (34°F) [RH = 93%]
Pressure (altimeter): 30.30 inches Hg (1026.0 mb)
Winds: from the SW (220 degrees) at 8 MPH (7 knots; 3.6 m/s)
Visibility: missing
Ceiling: at least 12,000 feet AGL
Clouds: sky clear below 12,000 feet AGL
Weather: no significant weather observed at this time

METAR text: EKKA 192050Z AUTO 20005KT 9999NDV FEW110/// 02/M00 Q1026 NOSIG
Conditions at: EKKA (KARUP (DAN-AFB) , DK) observed 2050 UTC 19 March 2019
Temperature: 2.0°C (36°F)
Dewpoint: 0.0°C (32°F) [RH = 87%]
Pressure (altimeter): 30.30 inches Hg (1026.0 mb)
Winds: from the SSW (200 degrees) at 6 MPH (5 knots; 2.6 m/s)
Visibility: missing
Ceiling: at least 12,000 feet AGL
Clouds: few clouds at 11000 feet AGL
Weather: no significant weather observed at this time

METAR text: EKKA 192020Z AUTO 20004KT 9999NDV SCT120/// 02/M00 Q1026 NOSIG
Conditions at: EKKA (KARUP (DAN-AFB) , DK) observed 2020 UTC 19 March 2019
Temperature: 2.0°C (36°F)
Dewpoint: 0.0°C (32°F) [RH = 87%]
Pressure (altimeter): 30.30 inches Hg (1026.0 mb)
Winds: from the SSW (200 degrees) at 5 MPH (4 knots; 2.1 m/s)
Visibility: missing
Ceiling: at least 12,000 feet AGL
Clouds: scattered clouds at 12000 feet AGL
Weather: no significant weather observed at this time

METAR text: EKKA 191950Z AUTO 19003KT 9999NDV BKN130/// 02/M01 Q1026 NOSIG
Conditions at: EKKA (KARUP (DAN-AFB) , DK) observed 1950 UTC 19 March 2019
Temperature: 2.0°C (36°F)
Dewpoint: -1.0°C (30°F) [RH = 80%]
Pressure (altimeter): 30.30 inches Hg (1026.0 mb)
Winds: from the S (190 degrees) at 3 MPH (3 knots; 1.5 m/s)
Visibility: missing
Ceiling: 13000 feet AGL
Clouds: broken clouds at 13000 feet AGL
Weather: no significant weather observed at this time

METAR text: EKKA 191920Z AUTO 21003KT 9999NDV FEW140/// 02/M01 Q1026 NOSIG
Conditions at: EKKA (KARUP (DAN-AFB) , DK) observed 1920 UTC 19 March 2019
Temperature: 2.0°C (36°F)
Dewpoint: -1.0°C (30°F) [RH = 80%]
Pressure (altimeter): 30.30 inches Hg (1026.0 mb)
Winds: from the SSW (210 degrees) at 3 MPH (3 knots; 1.5 m/s)
Visibility: missing
Ceiling: at least 12,000 feet AGL
Clouds: few clouds at 14000 feet AGL
Weather: no significant weather observed at this time

METAR text: EKKA 191850Z AUTO 22004KT 9999NDV BKN150/// 03/M01 Q1026 NOSIG
Conditions at: EKKA (KARUP (DAN-AFB) , DK) observed 1850 UTC 19 March 2019
Temperature: 3.0°C (37°F)
Dewpoint: -1.0°C (30°F) [RH = 75%]
Pressure (altimeter): 30.30 inches Hg (1026.0 mb)
Winds: from the SW (220 degrees) at 5 MPH (4 knots; 2.1 m/s)
Visibility: missing
Ceiling: 15000 feet AGL
Clouds: broken clouds at 15000 feet AGL
Weather: no significant weather observed at this time

METAR text: EKKA 191820Z AUTO 24005KT 9999NDV FEW027/// 04/M00 Q1026 NOSIG
Conditions at: EKKA (KARUP (DAN-AFB) , DK) observed 1820 UTC 19 March 2019
Temperature: 4.0°C (39°F)
Dewpoint: 0.0°C (32°F) [RH = 75%]
Pressure (altimeter): 30.30 inches Hg (1026.0 mb)
Winds: from the WSW (240 degrees) at 6 MPH (5 knots; 2.6 m/s)
Visibility: missing
Ceiling: at least 12,000 feet AGL
Clouds: few clouds at 2700 feet AGL
Weather: no significant weather observed at this time

METAR text: EKKA 191750Z AUTO 24004KT 9999NDV NCD 04/M00 Q1026 NOSIG
Conditions at: EKKA (KARUP (DAN-AFB) , DK) observed 1750 UTC 19 March 2019
Temperature: 4.0°C (39°F)
Dewpoint: 0.0°C (32°F) [RH = 75%]
Pressure (altimeter): 30.30 inches Hg (1026.0 mb)
Winds: from the WSW (240 degrees) at 5 MPH (4 knots; 2.1 m/s)
Visibility: missing
Ceiling: at least 12,000 feet AGL
Clouds: sky clear below 12,000 feet AGL
Weather: no significant weather observed at this time

METAR text: EKKA 191720Z AUTO 27006KT 9999NDV NCD 04/M00 Q1025 NOSIG
Conditions at: EKKA (KARUP (DAN-AFB) , DK) observed 1720 UTC 19 March 2019
Temperature: 4.0°C (39°F)
Dewpoint: 0.0°C (32°F) [RH = 75%]
Pressure (altimeter): 30.27 inches Hg (1025.0 mb)
Winds: from the W (270 degrees) at 7 MPH (6 knots; 3.1 m/s)
Visibility: missing
Ceiling: at least 12,000 feet AGL
Clouds: sky clear below 12,000 feet AGL
Weather: no significant weather observed at this time

METAR text: EKKA 191650Z AUTO 26008KT 9999NDV NCD 06/M00 Q1025 NOSIG
Conditions at: EKKA (KARUP (DAN-AFB) , DK) observed 1650 UTC 19 March 2019
Temperature: 6.0°C (43°F)
Dewpoint: 0.0°C (32°F) [RH = 65%]
Pressure (altimeter): 30.27 inches Hg (1025.0 mb)
Winds: from the W (260 degrees) at 9 MPH (8 knots; 4.1 m/s)
Visibility: missing
Ceiling: at least 12,000 feet AGL
Clouds: sky clear below 12,000 feet AGL
Weather: no significant weather observed at this time

METAR text: EKKA 191620Z AUTO 28009KT 9999NDV NCD 07/00 Q1025 NOSIG
Conditions at: EKKA (KARUP (DAN-AFB) , DK) observed 1620 UTC 19 March 2019
Temperature: 7.0°C (45°F)
Dewpoint: 0.0°C (32°F) [RH = 61%]
Pressure (altimeter): 30.27 inches Hg (1025.0 mb)
Winds: from the W (280 degrees) at 10 MPH (9 knots; 4.6 m/s)
Visibility: missing
Ceiling: at least 12,000 feet AGL
Clouds: sky clear below 12,000 feet AGL
Weather: no significant weather observed at this time

METAR text: EKKA 191550Z AUTO 27011KT 9999NDV FEW220/// 08/M01 Q1025 NOSIG
Conditions at: EKKA (KARUP (DAN-AFB) , DK) observed 1550 UTC 19 March 2019
Temperature: 8.0°C (46°F)
Dewpoint: -1.0°C (30°F) [RH = 53%]
Pressure (altimeter): 30.27 inches Hg (1025.0 mb)
Winds: from the W (270 degrees) at 13 MPH (11 knots; 5.7 m/s)
Visibility: missing
Ceiling: at least 12,000 feet AGL
Clouds: few clouds at 22000 feet AGL
Weather: no significant weather observed at this time

METAR text: EKKA 191520Z AUTO 26011KT 9999NDV FEW034/// 08/00 Q1024 NOSIG
Conditions at: EKKA (KARUP (DAN-AFB) , DK) observed 1520 UTC 19 March 2019
Temperature: 8.0°C (46°F)
Dewpoint: 0.0°C (32°F) [RH = 57%]
Pressure (altimeter): 30.24 inches Hg (1024.0 mb)
Winds: from the W (260 degrees) at 13 MPH (11 knots; 5.7 m/s)
Visibility: missing
Ceiling: at least 12,000 feet AGL
Clouds: few clouds at 3400 feet AGL
Weather: no significant weather observed at this time

METAR text: EKKA 191450Z AUTO 29009KT 9999NDV NCD 09/M00 Q1024 NOSIG
Conditions at: EKKA (KARUP (DAN-AFB) , DK) observed 1450 UTC 19 March 2019
Temperature: 9.0°C (48°F)
Dewpoint: 0.0°C (32°F) [RH = 53%]
Pressure (altimeter): 30.24 inches Hg (1024.0 mb)
Winds: from the WNW (290 degrees) at 10 MPH (9 knots; 4.6 m/s)
Visibility: missing
Ceiling: at least 12,000 feet AGL
Clouds: sky clear below 12,000 feet AGL
Weather: no significant weather observed at this time

METAR text: EKKA 191420Z AUTO 29009KT 250V320 9999NDV NCD 09/M01 Q1024 NOSIG
Conditions at: EKKA (KARUP (DAN-AFB) , DK) observed 1420 UTC 19 March 2019
Temperature: 9.0°C (48°F)
Dewpoint: -1.0°C (30°F) [RH = 49%]
Pressure (altimeter): 30.24 inches Hg (1024.0 mb)
Winds: from the WNW (290 degrees) at 10 MPH (9 knots; 4.6 m/s)
Visibility: missing
Ceiling: at least 12,000 feet AGL
Clouds: sky clear below 12,000 feet AGL
Weather: no significant weather observed at this time

METAR text: EKKA 191350Z AUTO 26010KT 9999NDV NCD 09/M02 Q1024 NOSIG
Conditions at: EKKA (KARUP (DAN-AFB) , DK) observed 1350 UTC 19 March 2019
Temperature: 9.0°C (48°F)
Dewpoint: -2.0°C (28°F) [RH = 46%]
Pressure (altimeter): 30.24 inches Hg (1024.0 mb)
Winds: from the W (260 degrees) at 12 MPH (10 knots; 5.1 m/s)
Visibility: missing
Ceiling: at least 12,000 feet AGL
Clouds: sky clear below 12,000 feet AGL
Weather: no significant weather observed at this time

METAR text: EKKA 191320Z AUTO 27008KT 220V290 9999NDV NCD 10/M01 Q1024 NOSIG
Conditions at: EKKA (KARUP (DAN-AFB) , DK) observed 1320 UTC 19 March 2019
Temperature: 10.0°C (50°F)
Dewpoint: -1.0°C (30°F) [RH = 46%]
Pressure (altimeter): 30.24 inches Hg (1024.0 mb)
Winds: from the W (270 degrees) at 9 MPH (8 knots; 4.1 m/s)
Visibility: missing
Ceiling: at least 12,000 feet AGL
Clouds: sky clear below 12,000 feet AGL
Weather: no significant weather observed at this time

METAR text: EKKA 191250Z AUTO 26008KT 220V290 9999NDV FEW048/// 10/M02 Q1024 NOSIG
Conditions at: EKKA (KARUP (DAN-AFB) , DK) observed 1250 UTC 19 March 2019
Temperature: 10.0°C (50°F)
Dewpoint: -2.0°C (28°F) [RH = 43%]
Pressure (altimeter): 30.24 inches Hg (1024.0 mb)
Winds: from the W (260 degrees) at 9 MPH (8 knots; 4.1 m/s)
Visibility: missing
Ceiling: at least 12,000 feet AGL
Clouds: few clouds at 4800 feet AGL
Weather: no significant weather observed at this time

METAR text: EKKA 191220Z AUTO 27007KT 210V320 9999NDV SCT043/// 09/M02 Q1024 NOSIG
Conditions at: EKKA (KARUP (DAN-AFB) , DK) observed 1220 UTC 19 March 2019
Temperature: 9.0°C (48°F)
Dewpoint: -2.0°C (28°F) [RH = 46%]
Pressure (altimeter): 30.24 inches Hg (1024.0 mb)
Winds: from the W (270 degrees) at 8 MPH (7 knots; 3.6 m/s)
Visibility: missing
Ceiling: at least 12,000 feet AGL
Clouds: scattered clouds at 4300 feet AGL
Weather: no significant weather observed at this time

METAR text: EKKA 191150Z AUTO 28006KT 240V310 9999NDV SCT039/// 08/M01 Q1024 NOSIG
Conditions at: EKKA (KARUP (DAN-AFB) , DK) observed 1150 UTC 19 March 2019
Temperature: 8.0°C (46°F)
Dewpoint: -1.0°C (30°F) [RH = 53%]
Pressure (altimeter): 30.24 inches Hg (1024.0 mb)
Winds: from the W (280 degrees) at 7 MPH (6 knots; 3.1 m/s)
Visibility: missing
Ceiling: at least 12,000 feet AGL
Clouds: scattered clouds at 3900 feet AGL
Weather: no significant weather observed at this time

METAR text: EKKA 191120Z AUTO 26006KT 220V290 9999NDV SCT039/// 08/M00 Q1024 NOSIG
Conditions at: EKKA (KARUP (DAN-AFB) , DK) observed 1120 UTC 19 March 2019
Temperature: 8.0°C (46°F)
Dewpoint: 0.0°C (32°F) [RH = 57%]
Pressure (altimeter): 30.24 inches Hg (1024.0 mb)
Winds: from the W (260 degrees) at 7 MPH (6 knots; 3.1 m/s)
Visibility: missing
Ceiling: at least 12,000 feet AGL
Clouds: scattered clouds at 3900 feet AGL
Weather: no significant weather observed at this time

METAR text: EKKA 191050Z AUTO 25007KT 220V290 9999NDV NCD 08/M02 Q1024 NOSIG
Conditions at: EKKA (KARUP (DAN-AFB) , DK) observed 1050 UTC 19 March 2019
Temperature: 8.0°C (46°F)
Dewpoint: -2.0°C (28°F) [RH = 49%]
Pressure (altimeter): 30.24 inches Hg (1024.0 mb)
Winds: from the WSW (250 degrees) at 8 MPH (7 knots; 3.6 m/s)
Visibility: missing
Ceiling: at least 12,000 feet AGL
Clouds: sky clear below 12,000 feet AGL
Weather: no significant weather observed at this time

METAR text: EKKA 191020Z AUTO 27006KT 230V300 9999NDV NCD 08/M03 Q1024 NOSIG
Conditions at: EKKA (KARUP (DAN-AFB) , DK) observed 1020 UTC 19 March 2019
Temperature: 8.0°C (46°F)
Dewpoint: -3.0°C (27°F) [RH = 46%]
Pressure (altimeter): 30.24 inches Hg (1024.0 mb)
Winds: from the W (270 degrees) at 7 MPH (6 knots; 3.1 m/s)
Visibility: missing
Ceiling: at least 12,000 feet AGL
Clouds: sky clear below 12,000 feet AGL
Weather: no significant weather observed at this time

METAR text: EKKA 190950Z AUTO 24006KT 220V290 9999NDV NCD 08/M02 Q1023 NOSIG
Conditions at: EKKA (KARUP (DAN-AFB) , DK) observed 0950 UTC 19 March 2019
Temperature: 8.0°C (46°F)
Dewpoint: -2.0°C (28°F) [RH = 49%]
Pressure (altimeter): 30.21 inches Hg (1023.0 mb)
Winds: from the WSW (240 degrees) at 7 MPH (6 knots; 3.1 m/s)
Visibility: missing
Ceiling: at least 12,000 feet AGL
Clouds: sky clear below 12,000 feet AGL
Weather: no significant weather observed at this time

METAR text: EKKA 190920Z AUTO 25004KT 200V280 9999NDV NCD 07/M01 Q1023 NOSIG
Conditions at: EKKA (KARUP (DAN-AFB) , DK) observed 0920 UTC 19 March 2019
Temperature: 7.0°C (45°F)
Dewpoint: -1.0°C (30°F) [RH = 57%]
Pressure (altimeter): 30.21 inches Hg (1023.0 mb)
Winds: from the WSW (250 degrees) at 5 MPH (4 knots; 2.1 m/s)
Visibility: missing
Ceiling: at least 12,000 feet AGL
Clouds: sky clear below 12,000 feet AGL
Weather: no significant weather observed at this time

METAR text: EKKA 190850Z AUTO 27004KT 230V310 9999NDV NCD 07/M01 Q1023 NOSIG
Conditions at: EKKA (KARUP (DAN-AFB) , DK) observed 0850 UTC 19 March 2019
Temperature: 7.0°C (45°F)
Dewpoint: -1.0°C (30°F) [RH = 57%]
Pressure (altimeter): 30.21 inches Hg (1023.0 mb)
Winds: from the W (270 degrees) at 5 MPH (4 knots; 2.1 m/s)
Visibility: missing
Ceiling: at least 12,000 feet AGL
Clouds: sky clear below 12,000 feet AGL
Weather: no significant weather observed at this time

METAR text: EKKA 190820Z AUTO 27001KT 9999NDV NCD 06/02 Q1022 NOSIG
Conditions at: EKKA (KARUP (DAN-AFB) , DK) observed 0820 UTC 19 March 2019
Temperature: 6.0°C (43°F)
Dewpoint: 2.0°C (36°F) [RH = 75%]
Pressure (altimeter): 30.18 inches Hg (1022.0 mb)
Winds: from the W (270 degrees) at 1 MPH (1 knots; 0.5 m/s)
Visibility: missing
Ceiling: at least 12,000 feet AGL
Clouds: sky clear below 12,000 feet AGL
Weather: no significant weather observed at this time

METAR text: EKKA 190750Z AUTO 25001KT 9999NDV NCD 04/02 Q1022 NOSIG
Conditions at: EKKA (KARUP (DAN-AFB) , DK) observed 0750 UTC 19 March 2019
Temperature: 4.0°C (39°F)
Dewpoint: 2.0°C (36°F) [RH = 87%]
Pressure (altimeter): 30.18 inches Hg (1022.0 mb)
Winds: from the WSW (250 degrees) at 1 MPH (1 knots; 0.5 m/s)
Visibility: missing
Ceiling: at least 12,000 feet AGL
Clouds: sky clear below 12,000 feet AGL
Weather: no significant weather observed at this time

METAR text: EKKA 190720Z AUTO 00000KT 9999NDV NCD 02/00 Q1022 NOSIG
Conditions at: EKKA (KARUP (DAN-AFB) , DK) observed 0720 UTC 19 March 2019
Temperature: 2.0°C (36°F)
Dewpoint: 0.0°C (32°F) [RH = 87%]
Pressure (altimeter): 30.18 inches Hg (1022.0 mb)
Winds: calm
Visibility: missing
Ceiling: at least 12,000 feet AGL
Clouds: sky clear below 12,000 feet AGL
Weather: no significant weather observed at this time

METAR text: EKKA 190650Z AUTO 00000KT 9999NDV NCD 01/M00 Q1021 NOSIG
Conditions at: EKKA (KARUP (DAN-AFB) , DK) observed 0650 UTC 19 March 2019
Temperature: 1.0°C (34°F)
Dewpoint: 0.0°C (32°F) [RH = 93%]
Pressure (altimeter): 30.15 inches Hg (1021.0 mb)
Winds: calm
Visibility: missing
Ceiling: at least 12,000 feet AGL
Clouds: sky clear below 12,000 feet AGL
Weather: no significant weather observed at this time

METAR text: EKKA 190630Z 00000KT CAVOK 01/M00 Q1021 NOSIG RMK SKC
Conditions at: EKKA (KARUP (DAN-AFB) , DK) observed 0630 UTC 19 March 2019
Temperature: 1.0°C (34°F)
Dewpoint: 0.0°C (32°F) [RH = 93%]
Pressure (altimeter): 30.15 inches Hg (1021.0 mb)
Winds: calm
Visibility: 6 or more miles (10+ km)
Ceiling: ceiling and visibility are OK
Clouds: unknown
Weather: no significant weather observed at this time

METAR text: EKKA 190620Z 00000KT 9999 MIFG SKC M00/M01 Q1021 BECMG NSW
Conditions at: EKKA (KARUP (DAN-AFB) , DK) observed 0620 UTC 19 March 2019
Temperature: 0.0°C (32°F)
Dewpoint: -1.0°C (30°F) [RH = 93%]
Pressure (altimeter): 30.15 inches Hg (1021.0 mb)
Winds: calm
Visibility: 6 or more miles (10+ km)
Ceiling: at least 12,000 feet AGL
Clouds: clear skies
Weather: MIFG  (shallow fog)

METAR text: EKKA 190617Z 00000KT 9999 MIFG SKC M00/M01 Q1021 BECMG NSW
Conditions at: EKKA (KARUP (DAN-AFB) , DK) observed 0617 UTC 19 March 2019
Temperature: 0.0°C (32°F)
Dewpoint: -1.0°C (30°F) [RH = 93%]
Pressure (altimeter): 30.15 inches Hg (1021.0 mb)
Winds: calm
Visibility: 6 or more miles (10+ km)
Ceiling: at least 12,000 feet AGL
Clouds: clear skies
Weather: MIFG  (shallow fog)

METAR text: EKKA 190550Z 00000KT 1500 MIFG SKC M02/M03 Q1021 BECMG 9999 NSW
Conditions at: EKKA (KARUP (DAN-AFB) , DK) observed 0550 UTC 19 March 2019
Temperature: -2.0°C (28°F)
Dewpoint: -3.0°C (27°F) [RH = 93%]
Pressure (altimeter): 30.15 inches Hg (1021.0 mb)
Winds: calm
Visibility: 0.93 miles (1.50 km)
Ceiling: at least 12,000 feet AGL
Clouds: clear skies
Weather: MIFG  (shallow fog)

METAR text: EKKA 190544Z 00000KT 2000 R09/P2000N R27/1400U MIFG SKC M02/M02 Q1020
Conditions at: EKKA (KARUP (DAN-AFB) , DK) observed 0544 UTC 19 March 2019
Temperature: -2.0°C (28°F)
Dewpoint: -2.0°C (28°F) [RH = 100%]
Pressure (altimeter): 30.12 inches Hg (1020.0 mb)
Winds: calm
Visibility: 1.24 miles (2.00 km)
Ceiling: at least 12,000 feet AGL
Clouds: clear skies
Weather: MIFG  (shallow fog)

METAR text: EKKA 190520Z 00000KT 0800 R09/P2000N R27/1900U FZFG SKC M02/M02 Q1020
Conditions at: EKKA (KARUP (DAN-AFB) , DK) observed 0520 UTC 19 March 2019
Temperature: -2.0°C (28°F)
Dewpoint: -2.0°C (28°F) [RH = 100%]
Pressure (altimeter): 30.12 inches Hg (1020.0 mb)
Winds: calm
Visibility: 0.50 miles (0.80 km)
Ceiling: at least 12,000 feet AGL
Clouds: clear skies
Weather: FZFG  (freezing fog)

METAR text: EKKA 190514Z 00000KT 0800 R09/1900D R27/M0250D FZFG SKC M02/M03 Q1020
Conditions at: EKKA (KARUP (DAN-AFB) , DK) observed 0514 UTC 19 March 2019
Temperature: -2.0°C (28°F)
Dewpoint: -3.0°C (27°F) [RH = 93%]
Pressure (altimeter): 30.12 inches Hg (1020.0 mb)
Winds: calm
Visibility: 0.50 miles (0.80 km)
Ceiling: at least 12,000 feet AGL
Clouds: clear skies
Weather: FZFG  (freezing fog)

METAR text: EKKA 190450Z 00000KT 2000 R09/P2000N R27/1600D MIFG NSC M02/M02 Q1020 RMK FEW065
Conditions at: EKKA (KARUP (DAN-AFB) , DK) observed 0450 UTC 19 March 2019
Temperature: -2.0°C (28°F)
Dewpoint: -2.0°C (28°F) [RH = 100%]
Pressure (altimeter): 30.12 inches Hg (1020.0 mb)
Winds: calm
Visibility: 1.24 miles (2.00 km)
Ceiling: at least 12,000 feet AGL
Clouds: sky clear below 12,000 feet AGL
Weather: MIFG  (shallow fog)

METAR text: EKKA 190420Z 28001KT 2000 R09/P2000N R27/1400D MIFG NSC M01/M02 Q1019 RMK FEW065
Conditions at: EKKA (KARUP (DAN-AFB) , DK) observed 0420 UTC 19 March 2019
Temperature: -1.0°C (30°F)
Dewpoint: -2.0°C (28°F) [RH = 93%]
Pressure (altimeter): 30.09 inches Hg (1019.0 mb)
Winds: from the W (280 degrees) at 1 MPH (1 knots; 0.5 m/s)
Visibility: 1.24 miles (2.00 km)
Ceiling: at least 12,000 feet AGL
Clouds: sky clear below 12,000 feet AGL
Weather: MIFG  (shallow fog)

METAR text: EKKA 190405Z AUTO 30001KT 2700NDV BR FEW066/// M01/M02 Q1019
Conditions at: EKKA (KARUP (DAN-AFB) , DK) observed 0405 UTC 19 March 2019
Temperature: -1.0°C (30°F)
Dewpoint: -2.0°C (28°F) [RH = 93%]
Pressure (altimeter): 30.09 inches Hg (1019.0 mb)
Winds: from the WNW (300 degrees) at 1 MPH (1 knots; 0.5 m/s)
Visibility: missing
Ceiling: at least 12,000 feet AGL
Clouds: few clouds at 6600 feet AGL
Weather: BR  (mist)

METAR text: EKKA 190404Z AUTO 30001KT 4700NDV FEW066/// M01/M02 Q1019
Conditions at: EKKA (KARUP (DAN-AFB) , DK) observed 0404 UTC 19 March 2019
Temperature: -1.0°C (30°F)
Dewpoint: -2.0°C (28°F) [RH = 93%]
Pressure (altimeter): 30.09 inches Hg (1019.0 mb)
Winds: from the WNW (300 degrees) at 1 MPH (1 knots; 0.5 m/s)
Visibility: missing
Ceiling: at least 12,000 feet AGL
Clouds: few clouds at 6600 feet AGL
Weather: no significant weather observed at this time

METAR text: EKKA 190350Z 00000KT 9999 R09/P2000N R27/1900U MIFG NSC M01/M02 Q1019
Conditions at: EKKA (KARUP (DAN-AFB) , DK) observed 0350 UTC 19 March 2019
Temperature: -1.0°C (30°F)
Dewpoint: -2.0°C (28°F) [RH = 93%]
Pressure (altimeter): 30.09 inches Hg (1019.0 mb)
Winds: calm
Visibility: 6 or more miles (10+ km)
Ceiling: at least 12,000 feet AGL
Clouds: sky clear below 12,000 feet AGL
Weather: MIFG  (shallow fog)

METAR text: EKKA 190349Z 30001KT 9999 R09/P2000N R27/1700U MIFG NSC M01/M02 Q1019 RMK SCT060
Conditions at: EKKA (KARUP (DAN-AFB) , DK) observed 0349 UTC 19 March 2019
Temperature: -1.0°C (30°F)
Dewpoint: -2.0°C (28°F) [RH = 93%]
Pressure (altimeter): 30.09 inches Hg (1019.0 mb)
Winds: from the WNW (300 degrees) at 1 MPH (1 knots; 0.5 m/s)
Visibility: 6 or more miles (10+ km)
Ceiling: at least 12,000 feet AGL
Clouds: sky clear below 12,000 feet AGL
Weather: MIFG  (shallow fog)

METAR text: EKKA 190347Z AUTO 30001KT 0700NDV R09R/P2000N R27L/1700D FZFG SCT067/// M01/M02 Q1019
Conditions at: EKKA (KARUP (DAN-AFB) , DK) observed 0347 UTC 19 March 2019
Temperature: -1.0°C (30°F)
Dewpoint: -2.0°C (28°F) [RH = 93%]
Pressure (altimeter): 30.09 inches Hg (1019.0 mb)
Winds: from the WNW (300 degrees) at 1 MPH (1 knots; 0.5 m/s)
Visibility: 1.24 miles (2.00 km)
Ceiling: at least 12,000 feet AGL
Clouds: scattered clouds at 6700 feet AGL
Weather: FZFG  (freezing fog)

METAR text: EKKA 190346Z AUTO 31001KT 0800NDV R09R/P2000N R27L/1800D FZFG SCT067/// M01/M02 Q1019
Conditions at: EKKA (KARUP (DAN-AFB) , DK) observed 0346 UTC 19 March 2019
Temperature: -1.0°C (30°F)
Dewpoint: -2.0°C (28°F) [RH = 93%]
Pressure (altimeter): 30.09 inches Hg (1019.0 mb)
Winds: from the NW (310 degrees) at 1 MPH (1 knots; 0.5 m/s)
Visibility: 1.24 miles (2.00 km)
Ceiling: at least 12,000 feet AGL
Clouds: scattered clouds at 6700 feet AGL
Weather: FZFG  (freezing fog)

METAR text: EKKA 190345Z AUTO 31001KT 1100NDV R09R/P2000N R27L/1900D BR SCT067/// M01/M02 Q1019
Conditions at: EKKA (KARUP (DAN-AFB) , DK) observed 0345 UTC 19 March 2019
Temperature: -1.0°C (30°F)
Dewpoint: -2.0°C (28°F) [RH = 93%]
Pressure (altimeter): 30.09 inches Hg (1019.0 mb)
Winds: from the NW (310 degrees) at 1 MPH (1 knots; 0.5 m/s)
Visibility: 1.24 miles (2.00 km)
Ceiling: at least 12,000 feet AGL
Clouds: scattered clouds at 6700 feet AGL
Weather: BR  (mist)

METAR text: EKKA 190344Z AUTO 31001KT 2500NDV BR SCT067/// M01/M02 Q1019
Conditions at: EKKA (KARUP (DAN-AFB) , DK) observed 0344 UTC 19 March 2019
Temperature: -1.0°C (30°F)
Dewpoint: -2.0°C (28°F) [RH = 93%]
Pressure (altimeter): 30.09 inches Hg (1019.0 mb)
Winds: from the NW (310 degrees) at 1 MPH (1 knots; 0.5 m/s)
Visibility: missing
Ceiling: at least 12,000 feet AGL
Clouds: scattered clouds at 6700 feet AGL
Weather: BR  (mist)

METAR text: EKKA 190343Z AUTO 31001KT 5000NDV SCT067/// M01/M02 Q1019
Conditions at: EKKA (KARUP (DAN-AFB) , DK) observed 0343 UTC 19 March 2019
Temperature: -1.0°C (30°F)
Dewpoint: -2.0°C (28°F) [RH = 93%]
Pressure (altimeter): 30.09 inches Hg (1019.0 mb)
Winds: from the NW (310 degrees) at 1 MPH (1 knots; 0.5 m/s)
Visibility: missing
Ceiling: at least 12,000 feet AGL
Clouds: scattered clouds at 6700 feet AGL
Weather: no significant weather observed at this time

METAR text: EKKA 190320Z AUTO 00000KT 9999NDV SCT066/// M01/M03 Q1018
Conditions at: EKKA (KARUP (DAN-AFB) , DK) observed 0320 UTC 19 March 2019
Temperature: -1.0°C (30°F)
Dewpoint: -3.0°C (27°F) [RH = 86%]
Pressure (altimeter): 30.06 inches Hg (1018.0 mb)
Winds: calm
Visibility: missing
Ceiling: at least 12,000 feet AGL
Clouds: scattered clouds at 6600 feet AGL
Weather: no significant weather observed at this time

METAR text: EKKA 190250Z AUTO 00000KT 9999NDV FEW067/// M01/M02 Q1018
Conditions at: EKKA (KARUP (DAN-AFB) , DK) observed 0250 UTC 19 March 2019
Temperature: -1.0°C (30°F)
Dewpoint: -2.0°C (28°F) [RH = 93%]
Pressure (altimeter): 30.06 inches Hg (1018.0 mb)
Winds: calm
Visibility: missing
Ceiling: at least 12,000 feet AGL
Clouds: few clouds at 6700 feet AGL
Weather: no significant weather observed at this time

METAR text: EKKA 190220Z AUTO 35002KT 9999NDV FEW066/// M00/M01 Q1017
Conditions at: EKKA (KARUP (DAN-AFB) , DK) observed 0220 UTC 19 March 2019
Temperature: 0.0°C (32°F)
Dewpoint: -1.0°C (30°F) [RH = 93%]
Pressure (altimeter): 30.03 inches Hg (1017.0 mb)
Winds: from the N (350 degrees) at 2 MPH (2 knots; 1.0 m/s)
Visibility: missing
Ceiling: at least 12,000 feet AGL
Clouds: few clouds at 6600 feet AGL
Weather: no significant weather observed at this time

METAR text: EKKA 190150Z AUTO 32002KT 9999NDV NCD M00/M01 Q1017
Conditions at: EKKA (KARUP (DAN-AFB) , DK) observed 0150 UTC 19 March 2019
Temperature: 0.0°C (32°F)
Dewpoint: -1.0°C (30°F) [RH = 93%]
Pressure (altimeter): 30.03 inches Hg (1017.0 mb)
Winds: from the NW (320 degrees) at 2 MPH (2 knots; 1.0 m/s)
Visibility: missing
Ceiling: at least 12,000 feet AGL
Clouds: sky clear below 12,000 feet AGL
Weather: no significant weather observed at this time

METAR text: EKKA 190120Z AUTO 00000KT 9999NDV NCD 00/M01 Q1016
Conditions at: EKKA (KARUP (DAN-AFB) , DK) observed 0120 UTC 19 March 2019
Temperature: 0.0°C (32°F)
Dewpoint: -1.0°C (30°F) [RH = 93%]
Pressure (altimeter): 30.00 inches Hg (1016.0 mb)
Winds: calm
Visibility: missing
Ceiling: at least 12,000 feet AGL
Clouds: sky clear below 12,000 feet AGL
Weather: no significant weather observed at this time

METAR text: EKKA 190050Z AUTO 27005KT 9999NDV NCD M00/M01 Q1016
Conditions at: EKKA (KARUP (DAN-AFB) , DK) observed 0050 UTC 19 March 2019
Temperature: 0.0°C (32°F)
Dewpoint: -1.0°C (30°F) [RH = 93%]
Pressure (altimeter): 30.00 inches Hg (1016.0 mb)
Winds: from the W (270 degrees) at 6 MPH (5 knots; 2.6 m/s)
Visibility: missing
Ceiling: at least 12,000 feet AGL
Clouds: sky clear below 12,000 feet AGL
Weather: no significant weather observed at this time

METAR text: EKKA 190020Z AUTO 28007KT 9999NDV NCD M00/M01 Q1016
Conditions at: EKKA (KARUP (DAN-AFB) , DK) observed 0020 UTC 19 March 2019
Temperature: 0.0°C (32°F)
Dewpoint: -1.0°C (30°F) [RH = 93%]
Pressure (altimeter): 30.00 inches Hg (1016.0 mb)
Winds: from the W (280 degrees) at 8 MPH (7 knots; 3.6 m/s)
Visibility: missing
Ceiling: at least 12,000 feet AGL
Clouds: sky clear below 12,000 feet AGL
Weather: no significant weather observed at this time

METAR text: EKKA 182350Z AUTO 27006KT 9999NDV NCD 02/00 Q1015
Conditions at: EKKA (KARUP (DAN-AFB) , DK) observed 2350 UTC 18 March 2019
Temperature: 2.0°C (36°F)
Dewpoint: 0.0°C (32°F) [RH = 87%]
Pressure (altimeter): 29.97 inches Hg (1015.0 mb)
Winds: from the W (270 degrees) at 7 MPH (6 knots; 3.1 m/s)
Visibility: missing
Ceiling: at least 12,000 feet AGL
Clouds: sky clear below 12,000 feet AGL
Weather: no significant weather observed at this time

METAR text: EKKA 182320Z AUTO 27005KT 9999NDV NCD 01/M00 Q1015
Conditions at: EKKA (KARUP (DAN-AFB) , DK) observed 2320 UTC 18 March 2019
Temperature: 1.0°C (34°F)
Dewpoint: 0.0°C (32°F) [RH = 93%]
Pressure (altimeter): 29.97 inches Hg (1015.0 mb)
Winds: from the W (270 degrees) at 6 MPH (5 knots; 2.6 m/s)
Visibility: missing
Ceiling: at least 12,000 feet AGL
Clouds: sky clear below 12,000 feet AGL
Weather: no significant weather observed at this time

METAR text: EKKA 182250Z AUTO 25006KT 9999NDV NCD 02/01 Q1015
Conditions at: EKKA (KARUP (DAN-AFB) , DK) observed 2250 UTC 18 March 2019
Temperature: 2.0°C (36°F)
Dewpoint: 1.0°C (34°F) [RH = 93%]
Pressure (altimeter): 29.97 inches Hg (1015.0 mb)
Winds: from the WSW (250 degrees) at 7 MPH (6 knots; 3.1 m/s)
Visibility: missing
Ceiling: at least 12,000 feet AGL
Clouds: sky clear below 12,000 feet AGL
Weather: no significant weather observed at this time

METAR text: EKKA 182220Z AUTO 25006KT 9999NDV NCD 02/01 Q1014
Conditions at: EKKA (KARUP (DAN-AFB) , DK) observed 2220 UTC 18 March 2019
Temperature: 2.0°C (36°F)
Dewpoint: 1.0°C (34°F) [RH = 93%]
Pressure (altimeter): 29.94 inches Hg (1014.0 mb)
Winds: from the WSW (250 degrees) at 7 MPH (6 knots; 3.1 m/s)
Visibility: missing
Ceiling: at least 12,000 feet AGL
Clouds: sky clear below 12,000 feet AGL
Weather: no significant weather observed at this time

METAR text: EKKA 182150Z AUTO 25006KT 9999NDV NCD 02/01 Q1014
Conditions at: EKKA (KARUP (DAN-AFB) , DK) observed 2150 UTC 18 March 2019
Temperature: 2.0°C (36°F)
Dewpoint: 1.0°C (34°F) [RH = 93%]
Pressure (altimeter): 29.94 inches Hg (1014.0 mb)
Winds: from the WSW (250 degrees) at 7 MPH (6 knots; 3.1 m/s)
Visibility: missing
Ceiling: at least 12,000 feet AGL
Clouds: sky clear below 12,000 feet AGL
Weather: no significant weather observed at this time

METAR text: EKKA 182120Z AUTO 24004KT 9999NDV NCD 03/01 Q1013
Conditions at: EKKA (KARUP (DAN-AFB) , DK) observed 2120 UTC 18 March 2019
Temperature: 3.0°C (37°F)
Dewpoint: 1.0°C (34°F) [RH = 87%]
Pressure (altimeter): 29.91 inches Hg (1013.0 mb)
Winds: from the WSW (240 degrees) at 5 MPH (4 knots; 2.1 m/s)
Visibility: missing
Ceiling: at least 12,000 feet AGL
Clouds: sky clear below 12,000 feet AGL
Weather: no significant weather observed at this time

METAR text: EKKA 182050Z AUTO 27005KT 9999NDV BKN078/// 02/01 Q1013
Conditions at: EKKA (KARUP (DAN-AFB) , DK) observed 2050 UTC 18 March 2019
Temperature: 2.0°C (36°F)
Dewpoint: 1.0°C (34°F) [RH = 93%]
Pressure (altimeter): 29.91 inches Hg (1013.0 mb)
Winds: from the W (270 degrees) at 6 MPH (5 knots; 2.6 m/s)
Visibility: missing
Ceiling: 7800 feet AGL
Clouds: broken clouds at 7800 feet AGL
Weather: no significant weather observed at this time

METAR text: EKKA 182020Z AUTO 28006KT 9999NDV FEW081/// 02/01 Q1013
Conditions at: EKKA (KARUP (DAN-AFB) , DK) observed 2020 UTC 18 March 2019
Temperature: 2.0°C (36°F)
Dewpoint: 1.0°C (34°F) [RH = 93%]
Pressure (altimeter): 29.91 inches Hg (1013.0 mb)
Winds: from the W (280 degrees) at 7 MPH (6 knots; 3.1 m/s)
Visibility: missing
Ceiling: at least 12,000 feet AGL
Clouds: few clouds at 8100 feet AGL
Weather: no significant weather observed at this time

METAR text: EKKA 181950Z AUTO 28007KT 9999NDV NCD 03/01 Q1012
Conditions at: EKKA (KARUP (DAN-AFB) , DK) observed 1950 UTC 18 March 2019
Temperature: 3.0°C (37°F)
Dewpoint: 1.0°C (34°F) [RH = 87%]
Pressure (altimeter): 29.88 inches Hg (1012.0 mb)
Winds: from the W (280 degrees) at 8 MPH (7 knots; 3.6 m/s)
Visibility: missing
Ceiling: at least 12,000 feet AGL
Clouds: sky clear below 12,000 feet AGL
Weather: no significant weather observed at this time

METAR text: EKKA 181920Z AUTO 28007KT 9999NDV NCD 03/01 Q1012
Conditions at: EKKA (KARUP (DAN-AFB) , DK) observed 1920 UTC 18 March 2019
Temperature: 3.0°C (37°F)
Dewpoint: 1.0°C (34°F) [RH = 87%]
Pressure (altimeter): 29.88 inches Hg (1012.0 mb)
Winds: from the W (280 degrees) at 8 MPH (7 knots; 3.6 m/s)
Visibility: missing
Ceiling: at least 12,000 feet AGL
Clouds: sky clear below 12,000 feet AGL
Weather: no significant weather observed at this time

Forecast for: EKKA (KARUP (DAN-AFB) , DK)
Text: TAF EKKA 200531Z 2006/2106 21012KT 6000 -DZRA BKN008
Forecast period: 0600 to 1000 UTC 20 March 2019
Forecast type: FROM: standard forecast or significant change
Winds: from the SSW (210 degrees) at 14 MPH (12 knots; 6.2 m/s)
Visibility: 4 miles (6 km)
Ceiling: 800 feet AGL
Clouds: broken clouds at 800 feet AGL
Weather: -DZ -RA  (light drizzle, light rain)
Text: TEMPO 2006/2010 1800 BR BKN003
Forecast period: 0600 to 1000 UTC 20 March 2019
Forecast type: TEMPORARY: The following changes expected for less than half the time period
Visibility: 1.12 miles (1.80 km)
Ceiling: 300 feet AGL
Clouds: broken clouds at 300 feet AGL
Weather: BR  (mist)
Text: BECMG 2010/2013 26008KT 9999 NSW BKN020
Forecast period: 1000 to 2200 UTC 20 March 2019
Forecast type: BECOMING: Conditions expected to become as follows by 1300 UTC 20 March 2019
Winds: from the W (260 degrees) at 9 MPH (8 knots; 4.1 m/s)
Visibility: 6 or more miles 10+ km)
Ceiling: 2000 feet AGL
Clouds: broken clouds at 2000 feet AGL
Weather: NSW  (no significant weather)
Text: BECMG 2022/2024 1800 BR
Forecast period: 2200 UTC 20 March 2019 to 0600 UTC 21 March 2019
Forecast type: BECOMING: Conditions expected to become as follows by 0000 UTC 21 March 2019
Winds: from the W (260 degrees) at 9 MPH (8 knots; 4.1 m/s)
Visibility: 1.12 miles (1.80 km)
Ceiling: 2000 feet AGL
Clouds: broken clouds at 2000 feet AGL
Weather: BR  (mist)
Text: TEMPO 2100/2106 4000 BR BKN002
Forecast period: 0000 to 0600 UTC 21 March 2019
Forecast type: TEMPORARY: The following changes expected for less than half the time period
Visibility: 2.49 miles (4.01 km)
Ceiling: 200 feet AGL
Clouds: broken clouds at 200 feet AGL
Weather: BR  (mist)